sensor_id;sensor_type;location;lat;lon;timestamp;P1;durP1;ratioP1;P2;durP2;ratioP2
58496;SDS011;44284;51.310;16.904;2022-12-16T00:02:21;77.03;;;34.55;;
58496;SDS011;44284;51.310;16.904;2022-12-16T00:04:47;78.13;;;35.50;;
58496;SDS011;44284;51.310;16.904;2022-12-16T00:07:13;86.05;;;36.08;;
58496;SDS011;44284;51.310;16.904;2022-12-16T00:09:40;87.00;;;34.92;;
58496;SDS011;44284;51.310;16.904;2022-12-16T00:12:06;87.07;;;35.83;;
58496;SDS011;44284;51.310;16.904;2022-12-16T00:14:32;94.07;;;38.10;;
58496;SDS011;44284;51.310;16.904;2022-12-16T00:16:58;78.65;;;32.67;;
58496;SDS011;44284;51.310;16.904;2022-12-16T00:19:24;68.32;;;31.80;;
58496;SDS011;44284;51.310;16.904;2022-12-16T00:21:50;74.03;;;32.42;;
58496;SDS011;44284;51.310;16.904;2022-12-16T00:24:16;87.70;;;40.10;;
58496;SDS011;44284;51.310;16.904;2022-12-16T00:26:42;87.18;;;40.83;;
58496;SDS011;44284;51.310;16.904;2022-12-16T00:29:08;98.80;;;44.15;;
58496;SDS011;44284;51.310;16.904;2022-12-16T00:31:35;119.85;;;59.53;;
58496;SDS011;44284;51.310;16.904;2022-12-16T00:34:01;100.07;;;45.50;;
58496;SDS011;44284;51.310;16.904;2022-12-16T00:36:27;91.28;;;42.95;;
58496;SDS011;44284;51.310;16.904;2022-12-16T00:38:53;95.05;;;45.22;;
58496;SDS011;44284;51.310;16.904;2022-12-16T00:41:19;94.65;;;41.47;;
58496;SDS011;44284;51.310;16.904;2022-12-16T00:43:46;87.25;;;39.53;;
58496;SDS011;44284;51.310;16.904;2022-12-16T00:46:12;90.47;;;39.97;;
58496;SDS011;44284;51.310;16.904;2022-12-16T00:48:38;89.50;;;38.22;;
58496;SDS011;44284;51.310;16.904;2022-12-16T00:51:04;92.30;;;38.20;;
58496;SDS011;44284;51.310;16.904;2022-12-16T00:53:30;83.50;;;38.42;;
58496;SDS011;44284;51.310;16.904;2022-12-16T00:56:06;80.18;;;35.25;;
58496;SDS011;44284;51.310;16.904;2022-12-16T00:58:33;74.28;;;33.75;;
58496;SDS011;44284;51.310;16.904;2022-12-16T01:00:59;88.90;;;36.00;;
58496;SDS011;44284;51.310;16.904;2022-12-16T01:03:25;77.50;;;37.55;;
58496;SDS011;44284;51.310;16.904;2022-12-16T01:05:52;85.45;;;35.92;;
58496;SDS011;44284;51.310;16.904;2022-12-16T01:08:18;80.55;;;37.25;;
58496;SDS011;44284;51.310;16.904;2022-12-16T01:10:53;83.18;;;34.40;;
58496;SDS011;44284;51.310;16.904;2022-12-16T01:13:20;74.80;;;35.45;;
58496;SDS011;44284;51.310;16.904;2022-12-16T01:15:47;80.57;;;33.63;;
58496;SDS011;44284;51.310;16.904;2022-12-16T01:18:13;78.53;;;35.03;;
58496;SDS011;44284;51.310;16.904;2022-12-16T01:20:39;96.13;;;40.40;;
58496;SDS011;44284;51.310;16.904;2022-12-16T01:23:05;102.70;;;44.53;;
58496;SDS011;44284;51.310;16.904;2022-12-16T01:25:31;85.88;;;40.92;;
58496;SDS011;44284;51.310;16.904;2022-12-16T01:27:57;90.18;;;37.58;;
58496;SDS011;44284;51.310;16.904;2022-12-16T01:30:23;81.15;;;36.40;;
58496;SDS011;44284;51.310;16.904;2022-12-16T01:32:49;82.22;;;40.28;;
58496;SDS011;44284;51.310;16.904;2022-12-16T01:35:15;89.03;;;37.63;;
58496;SDS011;44284;51.310;16.904;2022-12-16T01:37:41;82.30;;;34.88;;
58496;SDS011;44284;51.310;16.904;2022-12-16T01:40:08;91.22;;;36.50;;
58496;SDS011;44284;51.310;16.904;2022-12-16T01:42:40;73.95;;;38.05;;
58496;SDS011;44284;51.310;16.904;2022-12-16T01:48:51;80.75;;;34.90;;
58496;SDS011;44284;51.310;16.904;2022-12-16T01:50:51;73.93;;;31.35;;
58496;SDS011;44284;51.310;16.904;2022-12-16T01:53:19;93.22;;;39.90;;
58496;SDS011;44284;51.310;16.904;2022-12-16T01:55:46;79.57;;;37.10;;
58496;SDS011;44284;51.310;16.904;2022-12-16T01:58:17;85.13;;;34.33;;
58496;SDS011;44284;51.310;16.904;2022-12-16T02:00:44;89.38;;;37.47;;
58496;SDS011;44284;51.310;16.904;2022-12-16T02:03:10;75.45;;;34.10;;
58496;SDS011;44284;51.310;16.904;2022-12-16T02:05:37;74.53;;;33.83;;
58496;SDS011;44284;51.310;16.904;2022-12-16T02:13:09;78.97;;;34.45;;
58496;SDS011;44284;51.310;16.904;2022-12-16T02:15:42;75.95;;;33.70;;
58496;SDS011;44284;51.310;16.904;2022-12-16T02:36:24;75.10;;;34.88;;
58496;SDS011;44284;51.310;16.904;2022-12-16T02:38:58;73.07;;;33.92;;
58496;SDS011;44284;51.310;16.904;2022-12-16T02:44:07;81.20;;;37.10;;
58496;SDS011;44284;51.310;16.904;2022-12-16T02:46:38;78.38;;;38.50;;
58496;SDS011;44284;51.310;16.904;2022-12-16T02:49:08;83.70;;;39.60;;
58496;SDS011;44284;51.310;16.904;2022-12-16T02:51:35;86.45;;;36.85;;
58496;SDS011;44284;51.310;16.904;2022-12-16T02:54:01;79.47;;;36.20;;
58496;SDS011;44284;51.310;16.904;2022-12-16T02:59:37;84.80;;;42.50;;
58496;SDS011;44284;51.310;16.904;2022-12-16T03:04:19;79.57;;;36.55;;
58496;SDS011;44284;51.310;16.904;2022-12-16T03:06:46;74.88;;;33.35;;
58496;SDS011;44284;51.310;16.904;2022-12-16T03:09:14;70.97;;;34.50;;
58496;SDS011;44284;51.310;16.904;2022-12-16T03:11:42;86.32;;;35.20;;
58496;SDS011;44284;51.310;16.904;2022-12-16T03:14:09;83.63;;;35.67;;
58496;SDS011;44284;51.310;16.904;2022-12-16T03:16:37;80.55;;;34.25;;
58496;SDS011;44284;51.310;16.904;2022-12-16T03:19:03;79.47;;;34.95;;
58496;SDS011;44284;51.310;16.904;2022-12-16T03:21:37;79.38;;;32.88;;
58496;SDS011;44284;51.310;16.904;2022-12-16T03:24:04;72.03;;;32.70;;
58496;SDS011;44284;51.310;16.904;2022-12-16T03:29:06;75.75;;;33.65;;
58496;SDS011;44284;51.310;16.904;2022-12-16T03:31:40;81.95;;;33.28;;
58496;SDS011;44284;51.310;16.904;2022-12-16T03:36:34;73.40;;;31.92;;
58496;SDS011;44284;51.310;16.904;2022-12-16T03:39:02;74.00;;;34.72;;
58496;SDS011;44284;51.310;16.904;2022-12-16T03:41:29;72.43;;;31.98;;
58496;SDS011;44284;51.310;16.904;2022-12-16T03:43:56;72.95;;;33.20;;
58496;SDS011;44284;51.310;16.904;2022-12-16T03:46:22;71.20;;;32.80;;
58496;SDS011;44284;51.310;16.904;2022-12-16T03:48:49;76.00;;;37.75;;
58496;SDS011;44284;51.310;16.904;2022-12-16T03:51:15;78.85;;;34.95;;
58496;SDS011;44284;51.310;16.904;2022-12-16T03:53:41;70.15;;;33.80;;
58496;SDS011;44284;51.310;16.904;2022-12-16T03:56:08;78.50;;;34.30;;
58496;SDS011;44284;51.310;16.904;2022-12-16T03:58:34;86.85;;;37.28;;
58496;SDS011;44284;51.310;16.904;2022-12-16T04:01:01;80.38;;;37.03;;
58496;SDS011;44284;51.310;16.904;2022-12-16T04:03:28;78.03;;;36.58;;
58496;SDS011;44284;51.310;16.904;2022-12-16T04:05:54;76.80;;;34.42;;
58496;SDS011;44284;51.310;16.904;2022-12-16T04:08:20;88.75;;;37.03;;
58496;SDS011;44284;51.310;16.904;2022-12-16T04:10:49;75.93;;;35.08;;
58496;SDS011;44284;51.310;16.904;2022-12-16T04:13:33;83.90;;;34.70;;
58496;SDS011;44284;51.310;16.904;2022-12-16T04:16:18;77.15;;;34.17;;
58496;SDS011;44284;51.310;16.904;2022-12-16T04:19:03;90.63;;;38.70;;
58496;SDS011;44284;51.310;16.904;2022-12-16T04:21:47;83.82;;;36.55;;
58496;SDS011;44284;51.310;16.904;2022-12-16T04:24:32;82.50;;;35.47;;
58496;SDS011;44284;51.310;16.904;2022-12-16T04:26:59;64.60;;;32.95;;
58496;SDS011;44284;51.310;16.904;2022-12-16T04:29:43;73.03;;;33.03;;
58496;SDS011;44284;51.310;16.904;2022-12-16T04:32:28;75.78;;;33.33;;
58496;SDS011;44284;51.310;16.904;2022-12-16T04:35:14;77.68;;;34.05;;
58496;SDS011;44284;51.310;16.904;2022-12-16T04:37:59;74.45;;;34.10;;
58496;SDS011;44284;51.310;16.904;2022-12-16T04:40:43;70.53;;;31.40;;
58496;SDS011;44284;51.310;16.904;2022-12-16T04:43:28;78.45;;;33.75;;
58496;SDS011;44284;51.310;16.904;2022-12-16T04:46:13;73.80;;;33.20;;
58496;SDS011;44284;51.310;16.904;2022-12-16T04:48:57;73.32;;;33.22;;
58496;SDS011;44284;51.310;16.904;2022-12-16T04:51:42;73.63;;;32.85;;
58496;SDS011;44284;51.310;16.904;2022-12-16T04:54:26;70.78;;;33.83;;
58496;SDS011;44284;51.310;16.904;2022-12-16T04:57:11;67.03;;;30.45;;
58496;SDS011;44284;51.310;16.904;2022-12-16T04:59:55;62.83;;;31.25;;
58496;SDS011;44284;51.310;16.904;2022-12-16T05:02:40;71.75;;;33.35;;
58496;SDS011;44284;51.310;16.904;2022-12-16T05:05:25;78.40;;;34.05;;
58496;SDS011;44284;51.310;16.904;2022-12-16T05:08:09;62.17;;;29.30;;
58496;SDS011;44284;51.310;16.904;2022-12-16T05:10:54;69.07;;;33.60;;
58496;SDS011;44284;51.310;16.904;2022-12-16T05:13:39;72.80;;;30.40;;
58496;SDS011;44284;51.310;16.904;2022-12-16T05:16:23;67.22;;;31.92;;
58496;SDS011;44284;51.310;16.904;2022-12-16T05:19:08;72.88;;;32.85;;
58496;SDS011;44284;51.310;16.904;2022-12-16T05:21:53;79.03;;;33.30;;
58496;SDS011;44284;51.310;16.904;2022-12-16T05:24:37;73.43;;;32.42;;
58496;SDS011;44284;51.310;16.904;2022-12-16T05:27:22;68.55;;;33.17;;
58496;SDS011;44284;51.310;16.904;2022-12-16T05:30:07;71.18;;;33.45;;
58496;SDS011;44284;51.310;16.904;2022-12-16T05:32:52;69.45;;;29.73;;
58496;SDS011;44284;51.310;16.904;2022-12-16T05:35:36;59.42;;;28.90;;
58496;SDS011;44284;51.310;16.904;2022-12-16T05:38:21;77.32;;;33.42;;
58496;SDS011;44284;51.310;16.904;2022-12-16T05:41:05;90.00;;;39.42;;
58496;SDS011;44284;51.310;16.904;2022-12-16T05:43:50;69.15;;;32.03;;
58496;SDS011;44284;51.310;16.904;2022-12-16T05:46:34;79.63;;;33.88;;
58496;SDS011;44284;51.310;16.904;2022-12-16T05:49:19;71.93;;;31.77;;
58496;SDS011;44284;51.310;16.904;2022-12-16T05:52:03;84.00;;;37.40;;
58496;SDS011;44284;51.310;16.904;2022-12-16T05:54:48;79.82;;;35.17;;
58496;SDS011;44284;51.310;16.904;2022-12-16T05:57:32;71.35;;;34.25;;
58496;SDS011;44284;51.310;16.904;2022-12-16T06:00:17;66.72;;;33.42;;
58496;SDS011;44284;51.310;16.904;2022-12-16T06:03:02;86.65;;;38.15;;
58496;SDS011;44284;51.310;16.904;2022-12-16T06:05:46;74.90;;;35.28;;
58496;SDS011;44284;51.310;16.904;2022-12-16T06:08:31;68.28;;;32.08;;
58496;SDS011;44284;51.310;16.904;2022-12-16T06:11:15;77.20;;;33.55;;
58496;SDS011;44284;51.310;16.904;2022-12-16T06:14:00;64.43;;;29.45;;
58496;SDS011;44284;51.310;16.904;2022-12-16T06:16:45;65.18;;;28.55;;
58496;SDS011;44284;51.310;16.904;2022-12-16T06:19:29;61.65;;;30.95;;
58496;SDS011;44284;51.310;16.904;2022-12-16T06:22:14;76.43;;;32.88;;
58496;SDS011;44284;51.310;16.904;2022-12-16T06:24:59;69.90;;;34.28;;
58496;SDS011;44284;51.310;16.904;2022-12-16T06:27:47;63.80;;;30.67;;
58496;SDS011;44284;51.310;16.904;2022-12-16T06:30:33;69.72;;;32.63;;
58496;SDS011;44284;51.310;16.904;2022-12-16T06:33:17;70.88;;;32.40;;
58496;SDS011;44284;51.310;16.904;2022-12-16T06:36:02;78.85;;;34.83;;
58496;SDS011;44284;51.310;16.904;2022-12-16T06:38:47;92.63;;;38.40;;
58496;SDS011;44284;51.310;16.904;2022-12-16T06:41:32;83.72;;;36.10;;
58496;SDS011;44284;51.310;16.904;2022-12-16T06:44:16;85.32;;;35.92;;
58496;SDS011;44284;51.310;16.904;2022-12-16T06:47:01;73.65;;;30.88;;
58496;SDS011;44284;51.310;16.904;2022-12-16T06:49:45;69.22;;;34.05;;
58496;SDS011;44284;51.310;16.904;2022-12-16T06:52:30;72.53;;;32.60;;
58496;SDS011;44284;51.310;16.904;2022-12-16T06:55:15;78.50;;;31.25;;
58496;SDS011;44284;51.310;16.904;2022-12-16T06:57:59;69.70;;;34.13;;
58496;SDS011;44284;51.310;16.904;2022-12-16T07:00:45;70.00;;;31.23;;
58496;SDS011;44284;51.310;16.904;2022-12-16T07:03:37;66.72;;;30.70;;
58496;SDS011;44284;51.310;16.904;2022-12-16T07:06:22;61.55;;;29.77;;
58496;SDS011;44284;51.310;16.904;2022-12-16T07:09:06;64.22;;;30.80;;
58496;SDS011;44284;51.310;16.904;2022-12-16T07:11:51;66.05;;;30.58;;
58496;SDS011;44284;51.310;16.904;2022-12-16T07:14:35;58.50;;;30.00;;
58496;SDS011;44284;51.310;16.904;2022-12-16T07:17:19;69.55;;;29.90;;
58496;SDS011;44284;51.310;16.904;2022-12-16T07:20:04;65.57;;;31.58;;
58496;SDS011;44284;51.310;16.904;2022-12-16T07:25:33;56.78;;;26.70;;
58496;SDS011;44284;51.310;16.904;2022-12-16T07:28:18;57.88;;;26.00;;
58496;SDS011;44284;51.310;16.904;2022-12-16T07:31:02;57.83;;;28.35;;
58496;SDS011;44284;51.310;16.904;2022-12-16T07:33:46;48.97;;;27.38;;
58496;SDS011;44284;51.310;16.904;2022-12-16T07:36:31;58.88;;;29.65;;
58496;SDS011;44284;51.310;16.904;2022-12-16T07:39:15;74.25;;;32.75;;
58496;SDS011;44284;51.310;16.904;2022-12-16T07:42:00;66.50;;;30.67;;
58496;SDS011;44284;51.310;16.904;2022-12-16T07:44:45;72.30;;;30.58;;
58496;SDS011;44284;51.310;16.904;2022-12-16T07:47:29;60.47;;;30.45;;
58496;SDS011;44284;51.310;16.904;2022-12-16T07:50:14;69.72;;;33.55;;
58496;SDS011;44284;51.310;16.904;2022-12-16T07:52:59;74.32;;;33.47;;
58496;SDS011;44284;51.310;16.904;2022-12-16T07:55:44;72.03;;;34.20;;
58496;SDS011;44284;51.310;16.904;2022-12-16T07:58:29;76.95;;;33.15;;
58496;SDS011;44284;51.310;16.904;2022-12-16T08:03:58;60.43;;;32.63;;
58496;SDS011;44284;51.310;16.904;2022-12-16T08:06:43;70.93;;;30.23;;
58496;SDS011;44284;51.310;16.904;2022-12-16T08:09:27;73.00;;;29.75;;
58496;SDS011;44284;51.310;16.904;2022-12-16T08:12:12;73.38;;;33.83;;
58496;SDS011;44284;51.310;16.904;2022-12-16T08:14:56;85.35;;;35.88;;
58496;SDS011;44284;51.310;16.904;2022-12-16T08:17:46;80.18;;;34.03;;
58496;SDS011;44284;51.310;16.904;2022-12-16T08:20:31;80.90;;;34.28;;
58496;SDS011;44284;51.310;16.904;2022-12-16T08:23:16;80.82;;;36.28;;
58496;SDS011;44284;51.310;16.904;2022-12-16T08:26:00;76.82;;;35.13;;
58496;SDS011;44284;51.310;16.904;2022-12-16T08:28:45;68.68;;;31.63;;
58496;SDS011;44284;51.310;16.904;2022-12-16T08:31:30;75.70;;;33.42;;
58496;SDS011;44284;51.310;16.904;2022-12-16T08:34:14;77.65;;;35.53;;
58496;SDS011;44284;51.310;16.904;2022-12-16T08:36:59;78.18;;;35.47;;
58496;SDS011;44284;51.310;16.904;2022-12-16T08:39:43;76.95;;;34.58;;
58496;SDS011;44284;51.310;16.904;2022-12-16T08:42:29;77.03;;;34.22;;
58496;SDS011;44284;51.310;16.904;2022-12-16T08:45:14;80.30;;;36.30;;
58496;SDS011;44284;51.310;16.904;2022-12-16T08:47:59;71.13;;;37.10;;
58496;SDS011;44284;51.310;16.904;2022-12-16T08:50:43;81.32;;;37.45;;
58496;SDS011;44284;51.310;16.904;2022-12-16T08:53:28;87.28;;;38.42;;
58496;SDS011;44284;51.310;16.904;2022-12-16T08:56:12;90.03;;;37.20;;
58496;SDS011;44284;51.310;16.904;2022-12-16T09:01:42;70.60;;;32.58;;
58496;SDS011;44284;51.310;16.904;2022-12-16T09:04:27;76.18;;;34.55;;
58496;SDS011;44284;51.310;16.904;2022-12-16T09:07:11;78.93;;;33.55;;
58496;SDS011;44284;51.310;16.904;2022-12-16T09:09:56;74.07;;;35.85;;
58496;SDS011;44284;51.310;16.904;2022-12-16T09:12:40;73.00;;;34.63;;
58496;SDS011;44284;51.310;16.904;2022-12-16T09:15:25;85.90;;;35.80;;
58496;SDS011;44284;51.310;16.904;2022-12-16T09:18:10;77.10;;;35.55;;
58496;SDS011;44284;51.310;16.904;2022-12-16T09:20:54;64.90;;;33.35;;
58496;SDS011;44284;51.310;16.904;2022-12-16T09:23:39;85.22;;;38.45;;
58496;SDS011;44284;51.310;16.904;2022-12-16T09:26:23;89.82;;;39.80;;
58496;SDS011;44284;51.310;16.904;2022-12-16T09:29:08;74.68;;;34.97;;
58496;SDS011;44284;51.310;16.904;2022-12-16T09:31:53;85.82;;;38.47;;
58496;SDS011;44284;51.310;16.904;2022-12-16T09:34:37;87.22;;;38.80;;
58496;SDS011;44284;51.310;16.904;2022-12-16T09:37:22;71.88;;;34.42;;
58496;SDS011;44284;51.310;16.904;2022-12-16T09:40:08;77.30;;;35.95;;
58496;SDS011;44284;51.310;16.904;2022-12-16T09:42:54;83.78;;;37.08;;
58496;SDS011;44284;51.310;16.904;2022-12-16T09:51:18;71.93;;;34.40;;
58496;SDS011;44284;51.310;16.904;2022-12-16T09:54:03;84.25;;;35.50;;
58496;SDS011;44284;51.310;16.904;2022-12-16T09:59:34;69.85;;;33.00;;
58496;SDS011;44284;51.310;16.904;2022-12-16T10:02:19;82.63;;;34.97;;
58496;SDS011;44284;51.310;16.904;2022-12-16T10:05:10;82.60;;;35.35;;
58496;SDS011;44284;51.310;16.904;2022-12-16T10:08:43;80.90;;;35.20;;
58496;SDS011;44284;51.310;16.904;2022-12-16T10:11:03;86.90;;;39.17;;
58496;SDS011;44284;51.310;16.904;2022-12-16T10:14:01;69.15;;;35.40;;
58496;SDS011;44284;51.310;16.904;2022-12-16T10:22:36;75.20;;;31.33;;
58496;SDS011;44284;51.310;16.904;2022-12-16T10:25:25;85.82;;;39.00;;
58496;SDS011;44284;51.310;16.904;2022-12-16T10:30:56;85.53;;;39.33;;
58496;SDS011;44284;51.310;16.904;2022-12-16T10:33:41;92.03;;;44.10;;
58496;SDS011;44284;51.310;16.904;2022-12-16T10:36:28;86.93;;;37.78;;
58496;SDS011;44284;51.310;16.904;2022-12-16T10:42:21;98.45;;;42.28;;
58496;SDS011;44284;51.310;16.904;2022-12-16T10:45:29;84.13;;;38.80;;
58496;SDS011;44284;51.310;16.904;2022-12-16T10:48:12;83.53;;;36.88;;
58496;SDS011;44284;51.310;16.904;2022-12-16T10:53:42;83.72;;;36.92;;
58496;SDS011;44284;51.310;16.904;2022-12-16T10:56:36;79.35;;;37.95;;
58496;SDS011;44284;51.310;16.904;2022-12-16T10:59:36;81.43;;;38.78;;
58496;SDS011;44284;51.310;16.904;2022-12-16T11:02:23;84.68;;;41.58;;
58496;SDS011;44284;51.310;16.904;2022-12-16T11:08:08;87.05;;;36.72;;
58496;SDS011;44284;51.310;16.904;2022-12-16T11:11:39;94.45;;;39.75;;
58496;SDS011;44284;51.310;16.904;2022-12-16T11:17:11;93.80;;;41.22;;
58496;SDS011;44284;51.310;16.904;2022-12-16T11:20:09;85.47;;;38.83;;
58496;SDS011;44284;51.310;16.904;2022-12-16T11:26:08;81.50;;;39.42;;
58496;SDS011;44284;51.310;16.904;2022-12-16T11:34:54;88.68;;;37.03;;
58496;SDS011;44284;51.310;16.904;2022-12-16T11:37:39;87.93;;;38.10;;
58496;SDS011;44284;51.310;16.904;2022-12-16T11:40:24;100.82;;;38.20;;
58496;SDS011;44284;51.310;16.904;2022-12-16T11:43:10;90.05;;;38.45;;
58496;SDS011;44284;51.310;16.904;2022-12-16T11:45:56;85.00;;;37.67;;
58496;SDS011;44284;51.310;16.904;2022-12-16T11:48:43;87.45;;;39.50;;
58496;SDS011;44284;51.310;16.904;2022-12-16T11:51:28;88.75;;;38.92;;
58496;SDS011;44284;51.310;16.904;2022-12-16T11:54:30;90.22;;;39.30;;
58496;SDS011;44284;51.310;16.904;2022-12-16T11:57:21;82.18;;;41.05;;
58496;SDS011;44284;51.310;16.904;2022-12-16T12:00:12;81.57;;;36.40;;
58496;SDS011;44284;51.310;16.904;2022-12-16T12:03:18;82.50;;;38.40;;
58496;SDS011;44284;51.310;16.904;2022-12-16T12:06:50;93.28;;;41.30;;
58496;SDS011;44284;51.310;16.904;2022-12-16T12:09:18;93.20;;;36.50;;
58496;SDS011;44284;51.310;16.904;2022-12-16T12:15:10;94.50;;;41.90;;
58496;SDS011;44284;51.310;16.904;2022-12-16T12:22:03;90.15;;;39.75;;
58496;SDS011;44284;51.310;16.904;2022-12-16T12:27:15;92.95;;;41.50;;
58496;SDS011;44284;51.310;16.904;2022-12-16T12:30:05;102.72;;;39.67;;
58496;SDS011;44284;51.310;16.904;2022-12-16T12:33:13;93.22;;;41.15;;
58496;SDS011;44284;51.310;16.904;2022-12-16T12:48:03;97.50;;;40.83;;
58496;SDS011;44284;51.310;16.904;2022-12-16T12:51:02;83.60;;;38.42;;
58496;SDS011;44284;51.310;16.904;2022-12-16T12:56:46;90.35;;;43.28;;
58496;SDS011;44284;51.310;16.904;2022-12-16T12:59:52;103.57;;;44.33;;
58496;SDS011;44284;51.310;16.904;2022-12-16T13:02:43;100.05;;;41.22;;
58496;SDS011;44284;51.310;16.904;2022-12-16T13:05:36;103.63;;;43.28;;
58496;SDS011;44284;51.310;16.904;2022-12-16T13:11:16;99.47;;;42.28;;
58496;SDS011;44284;51.310;16.904;2022-12-16T13:14:00;100.35;;;43.13;;
58496;SDS011;44284;51.310;16.904;2022-12-16T13:28:15;88.78;;;38.53;;
58496;SDS011;44284;51.310;16.904;2022-12-16T13:31:03;111.35;;;42.08;;
58496;SDS011;44284;51.310;16.904;2022-12-16T13:36:33;95.78;;;42.75;;
58496;SDS011;44284;51.310;16.904;2022-12-16T13:39:28;87.50;;;39.80;;
58496;SDS011;44284;51.310;16.904;2022-12-16T13:48:38;83.40;;;39.72;;
58496;SDS011;44284;51.310;16.904;2022-12-16T13:54:07;86.05;;;37.92;;
58496;SDS011;44284;51.310;16.904;2022-12-16T13:56:52;96.80;;;39.47;;
58496;SDS011;44284;51.310;16.904;2022-12-16T13:59:36;102.93;;;43.15;;
58496;SDS011;44284;51.310;16.904;2022-12-16T14:02:37;113.18;;;46.25;;
58496;SDS011;44284;51.310;16.904;2022-12-16T14:05:24;110.53;;;46.17;;
58496;SDS011;44284;51.310;16.904;2022-12-16T14:08:12;112.55;;;49.83;;
58496;SDS011;44284;51.310;16.904;2022-12-16T14:11:03;112.63;;;44.40;;
58496;SDS011;44284;51.310;16.904;2022-12-16T14:13:51;113.38;;;44.80;;
58496;SDS011;44284;51.310;16.904;2022-12-16T14:16:42;100.10;;;41.40;;
58496;SDS011;44284;51.310;16.904;2022-12-16T14:25:38;104.63;;;43.92;;
58496;SDS011;44284;51.310;16.904;2022-12-16T14:28:30;101.03;;;44.53;;
58496;SDS011;44284;51.310;16.904;2022-12-16T14:31:16;102.72;;;44.22;;
58496;SDS011;44284;51.310;16.904;2022-12-16T14:34:02;118.68;;;47.70;;
58496;SDS011;44284;51.310;16.904;2022-12-16T14:36:47;114.68;;;45.00;;
58496;SDS011;44284;51.310;16.904;2022-12-16T14:39:36;110.85;;;42.40;;
58496;SDS011;44284;51.310;16.904;2022-12-16T14:42:23;108.72;;;43.75;;
58496;SDS011;44284;51.310;16.904;2022-12-16T14:45:46;106.15;;;41.97;;
58496;SDS011;44284;51.310;16.904;2022-12-16T14:51:21;87.45;;;40.58;;
58496;SDS011;44284;51.310;16.904;2022-12-16T14:54:52;97.82;;;42.38;;
58496;SDS011;44284;51.310;16.904;2022-12-16T14:57:12;85.50;;;34.63;;
58496;SDS011;44284;51.310;16.904;2022-12-16T14:59:58;97.95;;;40.25;;
58496;SDS011;44284;51.310;16.904;2022-12-16T15:02:43;93.43;;;36.97;;
58496;SDS011;44284;51.310;16.904;2022-12-16T15:05:31;100.90;;;41.28;;
58496;SDS011;44284;51.310;16.904;2022-12-16T15:08:16;97.07;;;41.35;;
58496;SDS011;44284;51.310;16.904;2022-12-16T15:11:01;98.80;;;41.03;;
58496;SDS011;44284;51.310;16.904;2022-12-16T15:13:47;93.72;;;39.70;;
58496;SDS011;44284;51.310;16.904;2022-12-16T15:16:34;93.13;;;42.15;;
58496;SDS011;44284;51.310;16.904;2022-12-16T15:19:20;99.90;;;43.65;;
58496;SDS011;44284;51.310;16.904;2022-12-16T15:22:09;90.63;;;39.80;;
58496;SDS011;44284;51.310;16.904;2022-12-16T15:24:56;99.18;;;40.05;;
58496;SDS011;44284;51.310;16.904;2022-12-16T15:27:41;88.13;;;39.13;;
58496;SDS011;44284;51.310;16.904;2022-12-16T15:30:45;101.93;;;41.60;;
58496;SDS011;44284;51.310;16.904;2022-12-16T15:33:34;92.03;;;40.28;;
58496;SDS011;44284;51.310;16.904;2022-12-16T15:39:25;111.40;;;44.10;;
58496;SDS011;44284;51.310;16.904;2022-12-16T15:42:32;98.68;;;43.47;;
58496;SDS011;44284;51.310;16.904;2022-12-16T15:45:30;101.88;;;40.92;;
58496;SDS011;44284;51.310;16.904;2022-12-16T15:48:30;104.65;;;42.97;;
58496;SDS011;44284;51.310;16.904;2022-12-16T15:54:16;100.05;;;43.25;;
58496;SDS011;44284;51.310;16.904;2022-12-16T15:57:01;102.97;;;43.60;;
58496;SDS011;44284;51.310;16.904;2022-12-16T15:59:54;96.75;;;40.22;;
58496;SDS011;44284;51.310;16.904;2022-12-16T16:02:43;112.97;;;47.35;;
58496;SDS011;44284;51.310;16.904;2022-12-16T16:05:28;106.95;;;47.72;;
58496;SDS011;44284;51.310;16.904;2022-12-16T16:08:13;108.68;;;46.95;;
58496;SDS011;44284;51.310;16.904;2022-12-16T16:10:58;125.13;;;46.97;;
58496;SDS011;44284;51.310;16.904;2022-12-16T16:13:43;104.80;;;45.03;;
58496;SDS011;44284;51.310;16.904;2022-12-16T16:16:27;147.63;;;54.33;;
58496;SDS011;44284;51.310;16.904;2022-12-16T16:19:13;118.80;;;48.35;;
58496;SDS011;44284;51.310;16.904;2022-12-16T16:21:59;129.35;;;50.38;;
58496;SDS011;44284;51.310;16.904;2022-12-16T16:24:44;123.70;;;48.08;;
58496;SDS011;44284;51.310;16.904;2022-12-16T16:27:30;122.35;;;50.53;;
58496;SDS011;44284;51.310;16.904;2022-12-16T16:32:59;98.37;;;44.33;;
58496;SDS011;44284;51.310;16.904;2022-12-16T16:35:44;99.25;;;46.45;;
58496;SDS011;44284;51.310;16.904;2022-12-16T16:38:29;111.32;;;47.63;;
58496;SDS011;44284;51.310;16.904;2022-12-16T16:41:14;115.68;;;49.08;;
58496;SDS011;44284;51.310;16.904;2022-12-16T16:43:59;134.07;;;50.83;;
58496;SDS011;44284;51.310;16.904;2022-12-16T16:46:44;138.52;;;48.58;;
58496;SDS011;44284;51.310;16.904;2022-12-16T16:49:33;103.97;;;45.75;;
58496;SDS011;44284;51.310;16.904;2022-12-16T16:52:20;124.32;;;48.13;;
58496;SDS011;44284;51.310;16.904;2022-12-16T16:55:06;122.63;;;51.30;;
58496;SDS011;44284;51.310;16.904;2022-12-16T16:57:51;115.28;;;50.65;;
58496;SDS011;44284;51.310;16.904;2022-12-16T17:00:35;119.85;;;49.55;;
58496;SDS011;44284;51.310;16.904;2022-12-16T17:03:20;100.22;;;44.95;;
58496;SDS011;44284;51.310;16.904;2022-12-16T17:06:05;124.72;;;51.17;;
58496;SDS011;44284;51.310;16.904;2022-12-16T17:08:50;119.75;;;50.13;;
58496;SDS011;44284;51.310;16.904;2022-12-16T17:11:51;121.60;;;49.15;;
58496;SDS011;44284;51.310;16.904;2022-12-16T17:14:36;127.07;;;53.03;;
58496;SDS011;44284;51.310;16.904;2022-12-16T17:17:20;127.20;;;49.60;;
58496;SDS011;44284;51.310;16.904;2022-12-16T17:20:05;125.47;;;55.58;;
58496;SDS011;44284;51.310;16.904;2022-12-16T17:22:50;122.00;;;54.10;;
58496;SDS011;44284;51.310;16.904;2022-12-16T17:25:34;118.63;;;54.00;;
58496;SDS011;44284;51.310;16.904;2022-12-16T17:28:19;122.55;;;52.90;;
58496;SDS011;44284;51.310;16.904;2022-12-16T17:31:03;136.52;;;56.20;;
58496;SDS011;44284;51.310;16.904;2022-12-16T17:33:48;120.43;;;52.17;;
58496;SDS011;44284;51.310;16.904;2022-12-16T17:36:32;120.22;;;51.28;;
58496;SDS011;44284;51.310;16.904;2022-12-16T17:39:17;123.78;;;52.22;;
58496;SDS011;44284;51.310;16.904;2022-12-16T17:42:01;119.45;;;49.58;;
58496;SDS011;44284;51.310;16.904;2022-12-16T17:44:46;139.27;;;53.72;;
58496;SDS011;44284;51.310;16.904;2022-12-16T17:47:30;125.55;;;51.42;;
58496;SDS011;44284;51.310;16.904;2022-12-16T17:50:15;120.95;;;52.30;;
58496;SDS011;44284;51.310;16.904;2022-12-16T17:52:59;108.15;;;49.58;;
58496;SDS011;44284;51.310;16.904;2022-12-16T17:55:44;123.93;;;52.75;;
58496;SDS011;44284;51.310;16.904;2022-12-16T17:58:30;115.93;;;55.10;;
58496;SDS011;44284;51.310;16.904;2022-12-16T18:01:15;126.93;;;54.80;;
58496;SDS011;44284;51.310;16.904;2022-12-16T18:03:59;131.00;;;51.25;;
58496;SDS011;44284;51.310;16.904;2022-12-16T18:06:44;127.15;;;52.42;;